createdAt,value
2022-12-01T00:01:02.595Z,39.22
2022-12-01T00:03:33.359Z,37.15
2022-12-01T00:06:00.783Z,37.47
2022-12-01T00:08:28.270Z,36.60
2022-12-01T00:10:56.576Z,40.05
2022-12-01T00:13:23.237Z,35.40
2022-12-01T00:15:50.277Z,36.25
2022-12-01T00:18:16.937Z,37.25
2022-12-01T00:20:43.653Z,36.42
2022-12-01T00:23:10.272Z,34.65
2022-12-01T00:25:37.150Z,34.80
2022-12-01T00:28:04.006Z,33.25
2022-12-01T00:30:30.912Z,31.50
2022-12-01T00:32:57.596Z,32.17
2022-12-01T00:35:24.445Z,33.10
2022-12-01T00:37:51.156Z,33.33
2022-12-01T00:40:17.927Z,33.88
2022-12-01T00:42:44.566Z,38.33
2022-12-01T00:45:11.405Z,38.90
2022-12-01T00:47:38.080Z,34.55
2022-12-01T00:50:05.210Z,36.42
2022-12-01T00:52:31.896Z,38.67
2022-12-01T00:54:58.771Z,37.85
2022-12-01T00:57:25.519Z,38.42
2022-12-01T00:59:52.339Z,39.05
2022-12-01T01:02:19.250Z,32.03
2022-12-01T01:04:45.946Z,33.25
2022-12-01T01:07:12.711Z,31.20
2022-12-01T01:09:39.435Z,30.58
2022-12-01T01:12:06.344Z,32.28
2022-12-01T01:14:33.019Z,34.03
2022-12-01T01:16:59.843Z,31.02
2022-12-01T01:19:26.534Z,31.77
2022-12-01T01:21:53.347Z,32.72
2022-12-01T01:24:20.012Z,32.17
2022-12-01T01:26:46.948Z,28.27
2022-12-01T01:29:13.631Z,30.08
2022-12-01T01:31:40.499Z,34.40
2022-12-01T01:34:07.176Z,33.75
2022-12-01T01:36:34.146Z,30.98
2022-12-01T01:39:01.427Z,35.50
2022-12-01T01:41:28.947Z,34.83
2022-12-01T01:44:01.961Z,33.38
2022-12-01T01:46:33.947Z,33.80
2022-12-01T01:49:08.231Z,32.42
2022-12-01T01:51:43.397Z,32.55
2022-12-01T01:54:18.426Z,34.90
2022-12-01T01:56:46.088Z,31.85
2022-12-01T01:59:15.220Z,31.63
2022-12-01T02:01:42.061Z,32.67
2022-12-01T02:04:08.711Z,32.78
2022-12-01T02:06:35.859Z,35.13
2022-12-01T02:09:02.497Z,36.05
2022-12-01T02:11:53.812Z,34.05
2022-12-01T02:14:25.120Z,32.42
2022-12-01T02:17:25.966Z,34.70
2022-12-01T02:20:30.377Z,32.15
2022-12-01T02:23:06.006Z,29.02
2022-12-01T02:25:46.346Z,28.60
2022-12-01T02:28:37.214Z,28.02
2022-12-01T02:31:22.965Z,31.92
2022-12-01T02:33:54.415Z,28.75
2022-12-01T02:36:31.384Z,32.45
2022-12-01T02:39:23.152Z,36.88
2022-12-01T02:41:53.978Z,33.88
2022-12-01T02:44:26.204Z,31.92
2022-12-01T02:47:00.763Z,34.22
2022-12-01T02:49:32.546Z,31.67
2022-12-01T02:52:00.289Z,29.80
2022-12-01T02:54:29.945Z,31.60
2022-12-01T02:56:57.215Z,38.67
2022-12-01T02:59:24.103Z,37.63
2022-12-01T03:02:11.891Z,34.72
2022-12-01T03:04:44.742Z,32.70
2022-12-01T03:07:39.336Z,31.88
2022-12-01T03:10:41.627Z,34.83
2022-12-01T03:13:35.658Z,33.47
2022-12-01T03:16:12.873Z,30.27
2022-12-01T03:18:54.900Z,32.40
2022-12-01T03:21:33.866Z,30.58
2022-12-01T03:24:19.452Z,30.85
2022-12-01T03:26:52.476Z,33.88
2022-12-01T03:29:30.796Z,32.15
2022-12-01T03:32:14.340Z,30.52
2022-12-01T03:34:45.484Z,29.02
2022-12-01T03:37:31.936Z,28.75
2022-12-01T03:40:00.950Z,26.52
2022-12-01T03:42:39.123Z,25.92
2022-12-01T03:45:09.387Z,28.15
2022-12-01T03:47:37.854Z,25.85
2022-12-01T03:50:05.933Z,28.13
2022-12-01T03:52:41.471Z,28.42
2022-12-01T03:55:08.144Z,28.17
2022-12-01T03:57:41.579Z,27.52
2022-12-01T04:00:11.443Z,27.77
2022-12-01T04:02:41.288Z,30.80
2022-12-01T04:05:09.391Z,30.02
2022-12-01T04:07:37.549Z,28.02
2022-12-01T04:10:05.390Z,31.65
2022-12-01T04:12:35.407Z,27.95
2022-12-01T04:15:06.335Z,27.27
2022-12-01T04:17:33.099Z,28.50
2022-12-01T04:20:00.101Z,28.33
2022-12-01T04:22:27.155Z,30.70
2022-12-01T04:24:54.010Z,24.05
2022-12-01T04:27:21.124Z,29.45
2022-12-01T04:29:48.254Z,31.40
2022-12-01T04:32:15.543Z,31.80
2022-12-01T04:34:42.343Z,32.97
2022-12-01T04:37:10.186Z,34.65
2022-12-01T04:39:37.037Z,33.75
2022-12-01T04:42:04.328Z,38.30
2022-12-01T04:44:34.732Z,39.50
2022-12-01T04:47:03.439Z,35.83
2022-12-01T04:49:30.269Z,31.73
2022-12-01T04:51:57.164Z,33.70
2022-12-01T04:54:24.026Z,36.95
2022-12-01T04:56:50.971Z,38.63
2022-12-01T04:59:17.643Z,37.33
2022-12-01T05:01:44.828Z,38.25
2022-12-01T05:04:12.885Z,38.42
2022-12-01T05:06:40.189Z,37.08
2022-12-01T05:09:07.220Z,36.05
2022-12-01T05:11:34.676Z,35.63
2022-12-01T05:14:01.315Z,34.75
2022-12-01T05:16:31.900Z,35.38
2022-12-01T05:19:19.972Z,34.55
2022-12-01T05:21:48.586Z,37.30
2022-12-01T05:24:16.017Z,35.70
2022-12-01T05:26:44.047Z,40.85
2022-12-01T05:29:11.562Z,34.63
2022-12-01T05:31:39.783Z,32.15
2022-12-01T05:34:07.552Z,34.92
2022-12-01T05:36:34.257Z,29.40
2022-12-01T05:39:01.168Z,30.13
2022-12-01T05:41:27.862Z,29.77
2022-12-01T05:43:54.780Z,28.73
2022-12-01T05:46:21.567Z,31.05
2022-12-01T05:48:48.439Z,30.35
2022-12-01T05:51:16.520Z,30.90
2022-12-01T05:53:43.837Z,31.60
2022-12-01T05:56:10.864Z,29.08
2022-12-01T05:58:37.900Z,33.92
2022-12-01T06:01:04.663Z,29.65
2022-12-01T06:03:31.420Z,27.75
2022-12-01T06:05:58.172Z,29.23
2022-12-01T06:08:24.976Z,30.73
2022-12-01T06:10:51.653Z,30.63
2022-12-01T06:13:18.513Z,30.73
2022-12-01T06:15:45.218Z,30.02
2022-12-01T06:18:11.990Z,26.67
2022-12-01T06:20:38.737Z,26.85
2022-12-01T06:23:06.043Z,28.02
2022-12-01T06:25:32.804Z,28.15
2022-12-01T06:27:59.851Z,27.58
2022-12-01T06:30:26.735Z,29.73
2022-12-01T06:32:53.785Z,29.45
2022-12-01T06:35:20.592Z,28.80
2022-12-01T06:37:47.663Z,29.75
2022-12-01T06:40:14.769Z,27.38
2022-12-01T06:42:41.569Z,27.83
2022-12-01T06:45:09.017Z,30.65
2022-12-01T06:47:35.879Z,28.90
2022-12-01T06:50:02.849Z,29.60
2022-12-01T06:52:29.680Z,30.83
2022-12-01T06:54:56.395Z,28.77
2022-12-01T06:57:23.458Z,28.90
2022-12-01T06:59:50.629Z,27.83
2022-12-01T07:02:18.062Z,29.05
2022-12-01T07:04:45.300Z,26.98
2022-12-01T07:07:12.780Z,32.42
2022-12-01T07:09:39.533Z,29.52
2022-12-01T07:12:06.753Z,28.17
2022-12-01T07:14:34.227Z,32.47
2022-12-01T07:17:07.397Z,30.65
2022-12-01T07:19:35.260Z,30.80
2022-12-01T07:22:03.099Z,31.52
2022-12-01T07:24:30.987Z,30.48
2022-12-01T07:26:58.597Z,33.97
2022-12-01T07:29:25.596Z,28.08
2022-12-01T07:31:52.848Z,27.70
2022-12-01T07:34:20.219Z,31.52
2022-12-01T07:36:47.227Z,30.05
2022-12-01T07:39:13.895Z,28.08
2022-12-01T07:41:40.700Z,24.40
2022-12-01T07:44:10.419Z,28.30
2022-12-01T07:46:37.376Z,28.48
2022-12-01T07:49:06.990Z,27.20
2022-12-01T07:51:34.747Z,29.20
2022-12-01T07:54:03.863Z,26.45
2022-12-01T07:56:30.778Z,26.38
2022-12-01T07:58:57.483Z,24.27
2022-12-01T08:01:25.198Z,28.10
2022-12-01T08:03:53.961Z,24.65
2022-12-01T08:06:21.285Z,27.52
2022-12-01T08:08:48.773Z,26.63
2022-12-01T08:11:20.743Z,24.85
2022-12-01T08:13:47.960Z,27.80
2022-12-01T08:16:17.905Z,26.85
2022-12-01T08:18:45.069Z,21.75
2022-12-01T08:21:14.691Z,24.70
2022-12-01T08:23:42.296Z,27.00
2022-12-01T08:26:14.363Z,25.92
2022-12-01T08:28:41.556Z,27.35
2022-12-01T08:31:20.030Z,25.10
2022-12-01T08:33:47.797Z,25.67
2022-12-01T08:36:15.625Z,26.02
2022-12-01T08:38:46.589Z,24.40
2022-12-01T08:41:14.643Z,26.85
2022-12-01T08:44:00.438Z,26.25
2022-12-01T08:46:31.506Z,25.52
2022-12-01T08:48:58.363Z,25.90
2022-12-01T08:51:25.704Z,27.52
2022-12-01T08:53:52.440Z,27.02
2022-12-01T08:56:22.940Z,26.35
2022-12-01T08:58:51.124Z,27.52
2022-12-01T09:01:18.822Z,25.58
2022-12-01T09:03:45.764Z,24.70
2022-12-01T09:06:20.770Z,26.38
2022-12-01T09:08:48.211Z,25.20
2022-12-01T09:11:17.507Z,24.92
2022-12-01T09:13:49.872Z,23.58
2022-12-01T09:16:20.007Z,25.33
2022-12-01T09:18:47.882Z,27.85
2022-12-01T09:21:21.055Z,25.88
2022-12-01T09:23:48.415Z,25.02
2022-12-01T09:26:18.639Z,24.25
2022-12-01T09:28:47.203Z,24.63
2022-12-01T09:31:14.867Z,23.95
2022-12-01T09:33:41.630Z,25.45
2022-12-01T09:36:09.469Z,26.13
2022-12-01T09:38:37.611Z,26.42
2022-12-01T09:41:12.019Z,22.95
2022-12-01T09:43:46.382Z,22.70
2022-12-01T09:46:20.371Z,24.48
2022-12-01T09:48:48.745Z,25.65
2022-12-01T09:51:21.934Z,23.35
2022-12-01T09:53:54.848Z,25.75
2022-12-01T09:56:26.948Z,23.77
2022-12-01T09:58:57.631Z,23.15
2022-12-01T10:01:41.937Z,22.48
2022-12-01T10:04:33.443Z,24.73
2022-12-01T10:07:20.551Z,22.52
2022-12-01T10:09:58.274Z,20.98
2022-12-01T10:12:27.919Z,21.77
2022-12-01T10:15:10.920Z,22.25
2022-12-01T10:17:51.047Z,21.10
2022-12-01T10:20:28.927Z,22.15
2022-12-01T10:23:14.861Z,21.90
2022-12-01T10:25:50.909Z,21.88
2022-12-01T10:28:35.784Z,21.20
2022-12-01T10:31:13.817Z,22.25
2022-12-01T10:33:50.001Z,21.67
2022-12-01T10:36:16.817Z,21.83
2022-12-01T10:38:43.515Z,23.20
2022-12-01T10:41:12.485Z,19.33
2022-12-01T10:43:50.524Z,20.50
2022-12-01T10:46:45.449Z,17.83
2022-12-01T10:49:14.676Z,18.08
2022-12-01T10:51:49.218Z,18.58
2022-12-01T10:54:16.273Z,17.70
2022-12-01T10:56:47.115Z,17.95
2022-12-01T10:59:29.591Z,18.00
2022-12-01T11:01:57.546Z,17.05
2022-12-01T11:04:59.523Z,17.17
2022-12-01T11:07:42.645Z,16.02
2022-12-01T11:10:27.762Z,12.18
2022-12-01T11:13:18.310Z,13.43
2022-12-01T11:16:00.001Z,14.38
2022-12-01T11:18:33.688Z,15.07
2022-12-01T11:21:15.547Z,15.10
2022-12-01T11:23:46.083Z,12.60
2022-12-01T11:26:14.551Z,15.48
2022-12-01T11:28:54.007Z,16.20
2022-12-01T11:31:24.358Z,12.55
2022-12-01T11:33:53.245Z,13.73
2022-12-01T11:36:29.161Z,14.93
2022-12-01T11:38:58.646Z,14.23
2022-12-01T11:41:29.870Z,14.35
2022-12-01T11:44:01.816Z,14.40
2022-12-01T11:46:32.396Z,18.25
2022-12-01T11:49:00.445Z,13.25
2022-12-01T11:51:37.774Z,14.85
2022-12-01T11:54:19.072Z,12.80
2022-12-01T11:56:52.776Z,12.52
2022-12-01T12:02:22.547Z,13.18
2022-12-01T12:05:06.744Z,11.82
2022-12-01T12:07:53.935Z,11.75
2022-12-01T12:10:26.606Z,12.32
2022-12-01T12:12:59.257Z,12.38
2022-12-01T12:18:01.792Z,13.57
2022-12-01T12:23:18.089Z,12.35
2022-12-01T12:25:52.718Z,12.35
2022-12-01T12:28:39.549Z,10.75
2022-12-01T12:31:19.830Z,10.90
2022-12-01T12:34:14.412Z,11.65
2022-12-01T12:37:01.991Z,11.55
2022-12-01T12:39:50.663Z,10.00
2022-12-01T12:42:46.490Z,10.32
2022-12-01T12:45:57.841Z,11.18
2022-12-01T12:49:18.644Z,11.05
2022-12-01T12:51:42.197Z,20.58
2022-12-01T12:54:17.797Z,11.90
2022-12-01T12:56:50.733Z,12.05
2022-12-01T12:59:24.827Z,10.18
2022-12-01T13:02:01.410Z,10.52
2022-12-01T13:04:53.521Z,14.82
2022-12-01T13:07:32.179Z,8.63
2022-12-01T13:10:07.128Z,10.20
2022-12-01T13:12:38.107Z,9.57
2022-12-01T13:15:17.185Z,10.13
2022-12-01T13:20:21.834Z,8.00
2022-12-01T13:22:49.386Z,7.75
2022-12-01T13:25:38.299Z,8.23
2022-12-01T13:28:13.240Z,10.32
2022-12-01T13:30:40.050Z,7.38
2022-12-01T13:33:07.165Z,8.23
2022-12-01T13:35:36.650Z,7.50
2022-12-01T13:38:33.689Z,7.18
2022-12-01T13:41:18.691Z,7.75
2022-12-01T13:44:08.280Z,8.27
2022-12-01T13:46:44.021Z,8.95
2022-12-01T13:49:40.492Z,8.60
2022-12-01T13:52:31.494Z,7.60
2022-12-01T13:55:10.885Z,7.80
2022-12-01T13:57:40.174Z,5.95
2022-12-01T14:00:21.608Z,8.20
2022-12-01T14:03:17.568Z,6.93
2022-12-01T14:05:58.457Z,8.00
2022-12-01T14:08:34.156Z,7.25
2022-12-01T14:11:04.503Z,6.75
2022-12-01T14:13:34.061Z,7.78
2022-12-01T14:16:03.058Z,8.00
2022-12-01T14:18:39.492Z,7.55
2022-12-01T14:21:10.964Z,8.60
2022-12-01T14:23:41.312Z,8.70
2022-12-01T14:26:17.965Z,9.52
2022-12-01T14:29:00.115Z,7.07
2022-12-01T14:31:32.964Z,9.30
2022-12-01T14:34:02.779Z,8.48
2022-12-01T14:36:41.429Z,9.30
2022-12-01T14:39:15.691Z,9.80
2022-12-01T14:42:04.293Z,10.88
2022-12-01T14:44:44.977Z,8.52
2022-12-01T14:47:12.417Z,7.95
2022-12-01T14:50:06.993Z,8.90
2022-12-01T14:52:38.977Z,8.73
2022-12-01T14:55:21.167Z,9.85
2022-12-01T14:57:53.605Z,9.65
2022-12-01T15:00:23.658Z,8.60
2022-12-01T15:02:58.918Z,9.40
2022-12-01T15:05:29.343Z,9.07
2022-12-01T15:08:18.775Z,7.82
2022-12-01T15:10:53.884Z,9.02
2022-12-01T15:13:29.050Z,9.65
2022-12-01T15:16:16.049Z,9.00
2022-12-01T15:18:45.271Z,9.13
2022-12-01T15:21:15.814Z,10.02
2022-12-01T15:24:07.703Z,11.02
2022-12-01T15:26:40.222Z,9.60
2022-12-01T15:29:16.880Z,10.50
2022-12-01T15:31:50.674Z,10.13
2022-12-01T15:34:24.997Z,10.35
2022-12-01T15:36:55.570Z,9.77
2022-12-01T15:39:35.276Z,10.25
2022-12-01T15:44:38.469Z,10.77
2022-12-01T15:47:32.190Z,10.30
2022-12-01T15:50:00.867Z,9.57
2022-12-01T15:52:28.618Z,11.15
2022-12-01T15:54:55.625Z,15.52
2022-12-01T15:57:22.647Z,14.75
2022-12-01T15:59:58.151Z,11.27
2022-12-01T16:02:32.686Z,10.43
2022-12-01T16:05:12.283Z,10.65
2022-12-01T16:08:11.470Z,8.45
2022-12-01T16:10:33.201Z,9.70
2022-12-01T16:13:38.267Z,10.60
2022-12-01T16:16:29.763Z,11.27
2022-12-01T16:19:04.004Z,9.85
2022-12-01T16:21:53.990Z,10.25
2022-12-01T16:24:52.665Z,10.73
2022-12-01T16:27:53.265Z,11.10
2022-12-01T16:30:25.337Z,10.18
2022-12-01T16:33:14.911Z,11.05
2022-12-01T16:35:47.783Z,10.50
2022-12-01T16:38:52.352Z,10.05
2022-12-01T16:41:55.403Z,10.98
2022-12-01T16:44:42.304Z,9.07
2022-12-01T16:47:18.145Z,10.43
2022-12-01T16:49:47.654Z,10.75
2022-12-01T16:55:47.256Z,10.25
2022-12-01T16:58:15.683Z,15.55
2022-12-01T17:00:43.047Z,16.45
2022-12-01T17:03:14.899Z,11.48
2022-12-01T17:05:53.815Z,12.02
2022-12-01T17:08:21.245Z,11.93
2022-12-01T17:10:52.197Z,14.32
2022-12-01T17:13:23.464Z,14.73
2022-12-01T17:15:52.607Z,12.00
2022-12-01T17:18:21.348Z,12.35
2022-12-01T17:20:59.472Z,13.02
2022-12-01T17:23:26.835Z,10.98
2022-12-01T17:25:54.128Z,11.32
2022-12-01T17:28:21.396Z,12.65
2022-12-01T17:30:48.140Z,10.73
2022-12-01T17:33:15.160Z,11.05
2022-12-01T17:35:42.229Z,11.77
2022-12-01T17:38:10.250Z,12.48
2022-12-01T17:40:37.131Z,11.40
2022-12-01T17:43:03.956Z,12.35
2022-12-01T17:45:30.587Z,13.57
2022-12-01T17:47:57.607Z,13.60
2022-12-01T17:50:24.249Z,13.45
2022-12-01T17:52:50.994Z,13.38
2022-12-01T17:55:17.789Z,14.57
2022-12-01T17:57:44.684Z,11.40
2022-12-01T18:00:12.067Z,11.25
2022-12-01T18:02:40.674Z,11.45
2022-12-01T18:05:08.472Z,11.65
2022-12-01T18:07:36.250Z,11.23
2022-12-01T18:10:03.063Z,10.75
2022-12-01T18:12:30.205Z,10.32
2022-12-01T18:14:56.878Z,11.75
2022-12-01T18:17:26.579Z,11.40
2022-12-01T18:19:55.362Z,12.00
2022-12-01T18:22:26.693Z,12.23
2022-12-01T18:24:58.061Z,9.95
2022-12-01T18:27:29.413Z,10.75
2022-12-01T18:29:59.293Z,12.15
2022-12-01T18:32:29.185Z,11.80
2022-12-01T18:35:04.967Z,10.23
2022-12-01T18:37:42.144Z,10.55
2022-12-01T18:40:17.013Z,10.48
2022-12-01T18:42:56.025Z,9.80
2022-12-01T18:45:31.405Z,9.80
2022-12-01T18:48:00.483Z,9.88
2022-12-01T18:50:27.374Z,9.35
2022-12-01T18:52:54.228Z,9.98
2022-12-01T18:55:22.733Z,9.77
2022-12-01T18:57:49.642Z,9.43
2022-12-01T19:00:16.843Z,11.23
2022-12-01T19:02:44.144Z,10.52
2022-12-01T19:05:10.983Z,10.52
2022-12-01T19:07:37.942Z,9.63
2022-12-01T19:10:05.325Z,9.82
2022-12-01T19:12:36.451Z,11.32
2022-12-01T19:15:06.862Z,11.88
2022-12-01T19:17:33.889Z,11.82
2022-12-01T19:20:00.646Z,11.43
2022-12-01T19:22:27.416Z,9.98
2022-12-01T19:24:54.454Z,9.75
2022-12-01T19:27:21.314Z,10.85
2022-12-01T19:29:50.061Z,12.45
2022-12-01T19:32:16.921Z,13.30
2022-12-01T19:34:43.859Z,11.13
2022-12-01T19:37:11.096Z,10.02
2022-12-01T19:39:38.656Z,10.73
2022-12-01T19:42:05.624Z,10.48
2022-12-01T19:44:32.559Z,10.38
2022-12-01T19:46:59.452Z,9.65
2022-12-01T19:49:26.439Z,10.65
2022-12-01T19:51:53.288Z,9.32
2022-12-01T19:54:20.483Z,10.10
2022-12-01T19:56:49.032Z,10.95
2022-12-01T19:59:15.967Z,9.90
2022-12-01T20:01:42.828Z,9.82
2022-12-01T20:04:09.545Z,12.70
2022-12-01T20:06:37.861Z,11.38
2022-12-01T20:09:06.278Z,11.18
2022-12-01T20:11:35.224Z,11.48
2022-12-01T20:14:03.417Z,12.68
2022-12-01T20:16:32.266Z,12.60
2022-12-01T20:19:01.408Z,12.00
2022-12-01T20:21:33.588Z,11.18
2022-12-01T20:24:02.818Z,12.20
2022-12-01T20:26:33.325Z,10.77
2022-12-01T20:29:03.332Z,11.70
2022-12-01T20:31:32.420Z,13.00
2022-12-01T20:34:03.012Z,13.35
2022-12-01T20:36:30.972Z,10.75
2022-12-01T20:38:58.585Z,13.73
2022-12-01T20:41:26.384Z,13.73
2022-12-01T20:43:54.103Z,14.60
2022-12-01T20:46:21.771Z,13.48
2022-12-01T20:48:49.276Z,14.82
2022-12-01T20:51:17.437Z,13.98
2022-12-01T20:54:05.539Z,13.23
2022-12-01T20:56:32.630Z,14.65
2022-12-01T20:59:00.003Z,13.27
2022-12-01T21:01:26.878Z,15.13
2022-12-01T21:03:53.906Z,13.55
2022-12-01T21:06:21.697Z,14.85
2022-12-01T21:08:49.741Z,15.10
2022-12-01T21:11:18.989Z,15.68
2022-12-01T21:13:46.786Z,16.40
2022-12-01T21:16:16.618Z,15.65
2022-12-01T21:18:53.486Z,17.58
2022-12-01T21:21:22.545Z,17.77
2022-12-01T21:24:26.121Z,18.75
2022-12-01T21:27:02.137Z,16.02
2022-12-01T21:29:38.919Z,16.80
2022-12-01T21:32:16.027Z,19.67
2022-12-01T21:34:43.801Z,17.75
2022-12-01T21:37:19.657Z,15.70
2022-12-01T21:39:50.932Z,19.73
2022-12-01T21:42:23.071Z,19.10
2022-12-01T21:44:50.734Z,18.95
2022-12-01T21:47:26.415Z,19.75
2022-12-01T21:49:54.834Z,16.30
2022-12-01T21:52:30.069Z,21.70
2022-12-01T21:55:02.778Z,21.92
2022-12-01T21:57:51.451Z,18.42
2022-12-01T22:00:27.445Z,19.48
2022-12-01T22:03:09.376Z,21.98
2022-12-01T22:05:42.857Z,19.83
2022-12-01T22:08:12.658Z,20.55
2022-12-01T22:10:58.073Z,21.75
2022-12-01T22:15:54.605Z,22.05
2022-12-01T22:18:29.850Z,22.02
2022-12-01T22:20:56.613Z,23.30
2022-12-01T22:23:28.694Z,21.95
2022-12-01T22:25:55.487Z,23.23
2022-12-01T22:28:23.654Z,24.67
2022-12-01T22:30:50.488Z,23.77
2022-12-01T22:33:22.130Z,24.90
2022-12-01T22:35:50.922Z,22.48
2022-12-01T22:38:22.018Z,27.08
2022-12-01T22:40:48.655Z,24.45
2022-12-01T22:45:47.768Z,25.92
2022-12-01T22:48:40.630Z,23.38
2022-12-01T22:51:25.120Z,24.60
2022-12-01T22:53:57.375Z,21.15
2022-12-01T22:56:35.162Z,24.02
2022-12-01T22:59:16.882Z,25.25
2022-12-01T23:01:49.581Z,24.70
2022-12-01T23:04:19.538Z,23.08
2022-12-01T23:06:49.553Z,24.77
2022-12-01T23:09:16.367Z,25.40
2022-12-01T23:11:44.217Z,25.75
2022-12-01T23:14:17.004Z,27.23
2022-12-01T23:16:43.867Z,27.33
2022-12-01T23:19:10.642Z,26.35
2022-12-01T23:21:37.431Z,25.35
2022-12-01T23:24:06.047Z,23.58
2022-12-01T23:26:32.900Z,24.20
2022-12-01T23:29:00.535Z,27.73
2022-12-01T23:31:27.841Z,26.85
2022-12-01T23:33:54.732Z,28.42
2022-12-01T23:36:26.802Z,27.33
2022-12-01T23:38:57.265Z,25.17
2022-12-01T23:41:33.865Z,27.30
2022-12-01T23:44:05.781Z,23.60
2022-12-01T23:46:32.786Z,27.33
2022-12-01T23:49:02.125Z,26.17
2022-12-01T23:51:32.681Z,27.58
2022-12-01T23:54:01.502Z,27.27
2022-12-01T23:56:30.938Z,27.40
2022-12-01T23:58:58.223Z,29.08
